sensor_id;sensor_type;location;lat;lon;timestamp;P1;durP1;ratioP1;P2;durP2;ratioP2
33010;SDS011;19370;48.562;9.196;2023-12-28T00:01:27;12.52;;;6.18;;
33010;SDS011;19370;48.562;9.196;2023-12-28T00:03:54;13.17;;;6.33;;
33010;SDS011;19370;48.562;9.196;2023-12-28T00:06:21;12.10;;;6.03;;
33010;SDS011;19370;48.562;9.196;2023-12-28T00:08:55;13.15;;;6.90;;
33010;SDS011;19370;48.562;9.196;2023-12-28T00:11:22;12.70;;;5.90;;
33010;SDS011;19370;48.562;9.196;2023-12-28T00:13:56;11.82;;;5.90;;
33010;SDS011;19370;48.562;9.196;2023-12-28T00:16:28;17.05;;;6.15;;
33010;SDS011;19370;48.562;9.196;2023-12-28T00:18:57;12.73;;;5.57;;
33010;SDS011;19370;48.562;9.196;2023-12-28T00:21:28;12.13;;;5.70;;
33010;SDS011;19370;48.562;9.196;2023-12-28T00:23:55;9.32;;;4.20;;
33010;SDS011;19370;48.562;9.196;2023-12-28T00:26:27;9.77;;;4.63;;
33010;SDS011;19370;48.562;9.196;2023-12-28T00:28:53;9.27;;;3.92;;
33010;SDS011;19370;48.562;9.196;2023-12-28T00:31:24;7.88;;;3.78;;
33010;SDS011;19370;48.562;9.196;2023-12-28T00:33:49;7.67;;;3.93;;
33010;SDS011;19370;48.562;9.196;2023-12-28T00:36:15;8.90;;;3.45;;
33010;SDS011;19370;48.562;9.196;2023-12-28T00:41:18;8.90;;;3.80;;
33010;SDS011;19370;48.562;9.196;2023-12-28T00:44:01;9.80;;;4.50;;
33010;SDS011;19370;48.562;9.196;2023-12-28T00:46:29;9.93;;;4.63;;
33010;SDS011;19370;48.562;9.196;2023-12-28T00:54:18;10.93;;;4.97;;
33010;SDS011;19370;48.562;9.196;2023-12-28T00:56:45;10.13;;;4.20;;
33010;SDS011;19370;48.562;9.196;2023-12-28T00:59:11;8.73;;;3.90;;
33010;SDS011;19370;48.562;9.196;2023-12-28T01:01:37;9.33;;;4.40;;
33010;SDS011;19370;48.562;9.196;2023-12-28T01:04:13;9.60;;;4.35;;
33010;SDS011;19370;48.562;9.196;2023-12-28T01:06:38;8.63;;;3.97;;
33010;SDS011;19370;48.562;9.196;2023-12-28T01:09:05;10.13;;;4.10;;
33010;SDS011;19370;48.562;9.196;2023-12-28T01:11:31;8.65;;;4.10;;
33010;SDS011;19370;48.562;9.196;2023-12-28T01:13:58;8.60;;;4.22;;
33010;SDS011;19370;48.562;9.196;2023-12-28T01:16:24;10.40;;;3.80;;
33010;SDS011;19370;48.562;9.196;2023-12-28T01:18:51;8.27;;;3.60;;
33010;SDS011;19370;48.562;9.196;2023-12-28T01:21:16;8.30;;;3.77;;
33010;SDS011;19370;48.562;9.196;2023-12-28T01:23:43;8.63;;;4.03;;
33010;SDS011;19370;48.562;9.196;2023-12-28T01:26:16;8.55;;;3.70;;
33010;SDS011;19370;48.562;9.196;2023-12-28T01:31:12;7.60;;;3.33;;
33010;SDS011;19370;48.562;9.196;2023-12-28T01:33:38;9.27;;;3.47;;
33010;SDS011;19370;48.562;9.196;2023-12-28T01:36:17;8.17;;;3.57;;
33010;SDS011;19370;48.562;9.196;2023-12-28T01:38:44;8.90;;;3.60;;
33010;SDS011;19370;48.562;9.196;2023-12-28T01:41:21;8.02;;;3.40;;
33010;SDS011;19370;48.562;9.196;2023-12-28T01:43:47;8.82;;;3.50;;
33010;SDS011;19370;48.562;9.196;2023-12-28T01:46:14;8.77;;;3.60;;
33010;SDS011;19370;48.562;9.196;2023-12-28T01:48:42;8.77;;;3.60;;
33010;SDS011;19370;48.562;9.196;2023-12-28T01:51:11;7.40;;;3.08;;
33010;SDS011;19370;48.562;9.196;2023-12-28T01:53:37;7.03;;;2.83;;
33010;SDS011;19370;48.562;9.196;2023-12-28T01:56:04;6.73;;;2.70;;
33010;SDS011;19370;48.562;9.196;2023-12-28T01:58:32;6.85;;;2.70;;
33010;SDS011;19370;48.562;9.196;2023-12-28T02:01:01;8.77;;;2.63;;
33010;SDS011;19370;48.562;9.196;2023-12-28T02:03:27;6.47;;;2.70;;
33010;SDS011;19370;48.562;9.196;2023-12-28T02:05:54;6.57;;;2.40;;
33010;SDS011;19370;48.562;9.196;2023-12-28T02:08:22;6.33;;;2.50;;
33010;SDS011;19370;48.562;9.196;2023-12-28T02:10:48;7.20;;;2.60;;
33010;SDS011;19370;48.562;9.196;2023-12-28T02:13:13;6.93;;;2.40;;
33010;SDS011;19370;48.562;9.196;2023-12-28T02:15:39;7.03;;;2.50;;
33010;SDS011;19370;48.562;9.196;2023-12-28T02:18:08;6.43;;;2.50;;
33010;SDS011;19370;48.562;9.196;2023-12-28T02:20:38;6.90;;;2.45;;
33010;SDS011;19370;48.562;9.196;2023-12-28T02:23:05;6.83;;;2.40;;
33010;SDS011;19370;48.562;9.196;2023-12-28T02:25:31;6.32;;;2.17;;
33010;SDS011;19370;48.562;9.196;2023-12-28T02:27:57;6.72;;;2.42;;
33010;SDS011;19370;48.562;9.196;2023-12-28T02:30:23;6.03;;;2.10;;
33010;SDS011;19370;48.562;9.196;2023-12-28T02:36:13;6.45;;;2.20;;
33010;SDS011;19370;48.562;9.196;2023-12-28T02:38:36;5.63;;;2.13;;
33010;SDS011;19370;48.562;9.196;2023-12-28T05:48:30;6.07;;;1.65;;
33010;SDS011;19370;48.562;9.196;2023-12-28T05:51:00;5.75;;;1.75;;
33010;SDS011;19370;48.562;9.196;2023-12-28T05:53:26;5.45;;;1.77;;
33010;SDS011;19370;48.562;9.196;2023-12-28T05:55:52;6.40;;;1.60;;
33010;SDS011;19370;48.562;9.196;2023-12-28T05:58:18;5.30;;;1.60;;
33010;SDS011;19370;48.562;9.196;2023-12-28T06:00:44;5.70;;;1.67;;
33010;SDS011;19370;48.562;9.196;2023-12-28T06:03:12;5.57;;;1.70;;
33010;SDS011;19370;48.562;9.196;2023-12-28T06:05:38;5.03;;;1.60;;
33010;SDS011;19370;48.562;9.196;2023-12-28T06:08:03;5.57;;;1.90;;
33010;SDS011;19370;48.562;9.196;2023-12-28T06:10:29;6.80;;;2.00;;
33010;SDS011;19370;48.562;9.196;2023-12-28T06:12:55;5.65;;;1.80;;
33010;SDS011;19370;48.562;9.196;2023-12-28T06:15:20;6.22;;;1.90;;
33010;SDS011;19370;48.562;9.196;2023-12-28T06:17:46;6.23;;;2.10;;
33010;SDS011;19370;48.562;9.196;2023-12-28T06:20:11;5.93;;;1.58;;
33010;SDS011;19370;48.562;9.196;2023-12-28T06:22:37;6.13;;;1.90;;
33010;SDS011;19370;48.562;9.196;2023-12-28T06:25:03;5.72;;;1.80;;
33010;SDS011;19370;48.562;9.196;2023-12-28T06:27:29;6.10;;;1.98;;
33010;SDS011;19370;48.562;9.196;2023-12-28T06:29:55;6.15;;;2.00;;
33010;SDS011;19370;48.562;9.196;2023-12-28T06:32:21;4.97;;;1.70;;
33010;SDS011;19370;48.562;9.196;2023-12-28T06:34:46;5.30;;;1.63;;
33010;SDS011;19370;48.562;9.196;2023-12-28T06:37:13;5.32;;;1.80;;
33010;SDS011;19370;48.562;9.196;2023-12-28T06:39:39;6.23;;;1.60;;
33010;SDS011;19370;48.562;9.196;2023-12-28T06:42:05;6.15;;;1.80;;
33010;SDS011;19370;48.562;9.196;2023-12-28T06:44:30;4.95;;;1.70;;
33010;SDS011;19370;48.562;9.196;2023-12-28T06:46:56;5.73;;;1.60;;
33010;SDS011;19370;48.562;9.196;2023-12-28T06:49:23;5.85;;;1.60;;
33010;SDS011;19370;48.562;9.196;2023-12-28T06:51:48;5.50;;;1.70;;
33010;SDS011;19370;48.562;9.196;2023-12-28T06:54:15;6.97;;;1.70;;
33010;SDS011;19370;48.562;9.196;2023-12-28T06:56:41;5.77;;;1.70;;
33010;SDS011;19370;48.562;9.196;2023-12-28T06:59:07;6.15;;;1.80;;
33010;SDS011;19370;48.562;9.196;2023-12-28T07:01:36;7.93;;;1.70;;
33010;SDS011;19370;48.562;9.196;2023-12-28T07:04:04;6.18;;;2.10;;
33010;SDS011;19370;48.562;9.196;2023-12-28T07:06:30;6.23;;;2.40;;
33010;SDS011;19370;48.562;9.196;2023-12-28T07:08:55;5.77;;;2.10;;
33010;SDS011;19370;48.562;9.196;2023-12-28T07:11:21;6.47;;;2.10;;
33010;SDS011;19370;48.562;9.196;2023-12-28T07:13:47;6.10;;;2.00;;
33010;SDS011;19370;48.562;9.196;2023-12-28T07:16:13;6.07;;;1.70;;
33010;SDS011;19370;48.562;9.196;2023-12-28T07:18:40;5.85;;;1.83;;
33010;SDS011;19370;48.562;9.196;2023-12-28T07:21:05;6.32;;;2.03;;
33010;SDS011;19370;48.562;9.196;2023-12-28T07:23:34;6.03;;;1.70;;
33010;SDS011;19370;48.562;9.196;2023-12-28T07:26:00;5.60;;;1.50;;
33010;SDS011;19370;48.562;9.196;2023-12-28T07:28:25;5.30;;;1.50;;
33010;SDS011;19370;48.562;9.196;2023-12-28T07:30:51;5.38;;;1.58;;
33010;SDS011;19370;48.562;9.196;2023-12-28T07:33:16;5.78;;;1.67;;
33010;SDS011;19370;48.562;9.196;2023-12-28T07:35:42;5.23;;;1.47;;
33010;SDS011;19370;48.562;9.196;2023-12-28T07:38:08;5.50;;;2.00;;
33010;SDS011;19370;48.562;9.196;2023-12-28T07:40:33;6.22;;;2.03;;
33010;SDS011;19370;48.562;9.196;2023-12-28T07:42:59;5.72;;;1.90;;
33010;SDS011;19370;48.562;9.196;2023-12-28T07:45:26;5.30;;;2.08;;
33010;SDS011;19370;48.562;9.196;2023-12-28T07:47:51;6.20;;;2.00;;
33010;SDS011;19370;48.562;9.196;2023-12-28T07:50:17;6.00;;;2.50;;
33010;SDS011;19370;48.562;9.196;2023-12-28T07:52:54;6.10;;;2.22;;
33010;SDS011;19370;48.562;9.196;2023-12-28T07:55:20;6.57;;;2.20;;
33010;SDS011;19370;48.562;9.196;2023-12-28T07:57:45;5.90;;;2.00;;
33010;SDS011;19370;48.562;9.196;2023-12-28T08:00:11;8.87;;;2.37;;
33010;SDS011;19370;48.562;9.196;2023-12-28T08:02:37;7.78;;;2.67;;
33010;SDS011;19370;48.562;9.196;2023-12-28T08:05:03;7.93;;;1.92;;
33010;SDS011;19370;48.562;9.196;2023-12-28T08:07:30;5.80;;;1.93;;
33010;SDS011;19370;48.562;9.196;2023-12-28T08:09:55;8.38;;;2.35;;
33010;SDS011;19370;48.562;9.196;2023-12-28T08:12:21;8.47;;;2.30;;
33010;SDS011;19370;48.562;9.196;2023-12-28T08:14:47;7.25;;;2.38;;
33010;SDS011;19370;48.562;9.196;2023-12-28T08:17:12;6.70;;;2.20;;
33010;SDS011;19370;48.562;9.196;2023-12-28T08:19:38;6.70;;;2.17;;
33010;SDS011;19370;48.562;9.196;2023-12-28T08:22:03;6.13;;;1.95;;
33010;SDS011;19370;48.562;9.196;2023-12-28T08:24:29;5.97;;;1.80;;
33010;SDS011;19370;48.562;9.196;2023-12-28T08:26:55;7.87;;;3.00;;
33010;SDS011;19370;48.562;9.196;2023-12-28T08:29:24;7.55;;;3.05;;
33010;SDS011;19370;48.562;9.196;2023-12-28T08:31:50;9.77;;;4.23;;
33010;SDS011;19370;48.562;9.196;2023-12-28T08:34:15;8.93;;;3.60;;
33010;SDS011;19370;48.562;9.196;2023-12-28T08:36:41;8.93;;;4.00;;
33010;SDS011;19370;48.562;9.196;2023-12-28T08:39:06;7.25;;;2.80;;
33010;SDS011;19370;48.562;9.196;2023-12-28T08:41:32;7.88;;;2.70;;
33010;SDS011;19370;48.562;9.196;2023-12-28T08:43:58;6.20;;;1.80;;
33010;SDS011;19370;48.562;9.196;2023-12-28T08:46:24;6.68;;;1.95;;
33010;SDS011;19370;48.562;9.196;2023-12-28T08:48:50;6.40;;;1.88;;
33010;SDS011;19370;48.562;9.196;2023-12-28T08:51:15;5.77;;;1.80;;
33010;SDS011;19370;48.562;9.196;2023-12-28T08:53:41;5.90;;;1.83;;
33010;SDS011;19370;48.562;9.196;2023-12-28T08:58:43;5.93;;;1.90;;
33010;SDS011;19370;48.562;9.196;2023-12-28T09:01:19;6.20;;;1.70;;
33010;SDS011;19370;48.562;9.196;2023-12-28T09:03:51;6.85;;;1.70;;
33010;SDS011;19370;48.562;9.196;2023-12-28T09:06:17;5.90;;;1.70;;
33010;SDS011;19370;48.562;9.196;2023-12-28T09:08:50;7.28;;;2.53;;
33010;SDS011;19370;48.562;9.196;2023-12-28T09:11:17;7.72;;;3.30;;
33010;SDS011;19370;48.562;9.196;2023-12-28T09:13:43;7.97;;;3.20;;
33010;SDS011;19370;48.562;9.196;2023-12-28T09:16:12;7.67;;;3.20;;
33010;SDS011;19370;48.562;9.196;2023-12-28T09:18:39;6.20;;;2.85;;
33010;SDS011;19370;48.562;9.196;2023-12-28T09:21:08;6.88;;;2.20;;
33010;SDS011;19370;48.562;9.196;2023-12-28T09:23:34;5.82;;;1.90;;
33010;SDS011;19370;48.562;9.196;2023-12-28T09:26:04;6.53;;;1.90;;
33010;SDS011;19370;48.562;9.196;2023-12-28T09:28:30;8.05;;;2.80;;
33010;SDS011;19370;48.562;9.196;2023-12-28T09:31:02;8.98;;;3.35;;
33010;SDS011;19370;48.562;9.196;2023-12-28T09:33:29;8.73;;;3.15;;
33010;SDS011;19370;48.562;9.196;2023-12-28T09:35:54;6.10;;;2.20;;
33010;SDS011;19370;48.562;9.196;2023-12-28T09:38:20;7.90;;;2.60;;
33010;SDS011;19370;48.562;9.196;2023-12-28T09:40:47;8.20;;;2.78;;
33010;SDS011;19370;48.562;9.196;2023-12-28T09:45:47;7.40;;;2.67;;
33010;SDS011;19370;48.562;9.196;2023-12-28T09:48:16;6.82;;;2.30;;
33010;SDS011;19370;48.562;9.196;2023-12-28T09:50:52;7.47;;;2.38;;
33010;SDS011;19370;48.562;9.196;2023-12-28T09:53:22;7.15;;;2.10;;
33010;SDS011;19370;48.562;9.196;2023-12-28T09:55:49;7.90;;;2.43;;
33010;SDS011;19370;48.562;9.196;2023-12-28T09:58:16;6.28;;;2.20;;
33010;SDS011;19370;48.562;9.196;2023-12-28T10:00:44;6.07;;;2.05;;
33010;SDS011;19370;48.562;9.196;2023-12-28T10:03:14;6.90;;;1.92;;
33010;SDS011;19370;48.562;9.196;2023-12-28T10:05:41;5.85;;;1.90;;
33010;SDS011;19370;48.562;9.196;2023-12-28T10:08:08;5.70;;;1.73;;
33010;SDS011;19370;48.562;9.196;2023-12-28T10:10:36;6.28;;;2.17;;
33010;SDS011;19370;48.562;9.196;2023-12-28T10:13:01;5.72;;;2.10;;
33010;SDS011;19370;48.562;9.196;2023-12-28T10:15:27;7.47;;;2.80;;
33010;SDS011;19370;48.562;9.196;2023-12-28T10:17:53;7.05;;;2.10;;
33010;SDS011;19370;48.562;9.196;2023-12-28T10:20:18;7.50;;;2.27;;
33010;SDS011;19370;48.562;9.196;2023-12-28T10:22:44;6.72;;;2.30;;
33010;SDS011;19370;48.562;9.196;2023-12-28T10:25:11;5.87;;;2.17;;
33010;SDS011;19370;48.562;9.196;2023-12-28T10:27:40;6.15;;;2.03;;
33010;SDS011;19370;48.562;9.196;2023-12-28T10:30:09;8.32;;;2.30;;
33010;SDS011;19370;48.562;9.196;2023-12-28T10:32:40;6.35;;;2.03;;
33010;SDS011;19370;48.562;9.196;2023-12-28T10:35:06;7.37;;;2.50;;
33010;SDS011;19370;48.562;9.196;2023-12-28T10:37:43;6.78;;;2.33;;
33010;SDS011;19370;48.562;9.196;2023-12-28T10:40:17;7.57;;;2.75;;
33010;SDS011;19370;48.562;9.196;2023-12-28T10:42:49;7.95;;;2.60;;
33010;SDS011;19370;48.562;9.196;2023-12-28T10:45:28;7.18;;;2.83;;
33010;SDS011;19370;48.562;9.196;2023-12-28T10:48:03;8.10;;;2.70;;
33010;SDS011;19370;48.562;9.196;2023-12-28T10:50:35;7.50;;;3.10;;
33010;SDS011;19370;48.562;9.196;2023-12-28T10:58:57;7.10;;;3.00;;
33010;SDS011;19370;48.562;9.196;2023-12-28T11:01:32;8.20;;;3.60;;
33010;SDS011;19370;48.562;9.196;2023-12-28T11:04:03;9.27;;;3.50;;
33010;SDS011;19370;48.562;9.196;2023-12-28T11:06:53;9.25;;;4.00;;
33010;SDS011;19370;48.562;9.196;2023-12-28T11:09:22;10.13;;;3.58;;
33010;SDS011;19370;48.562;9.196;2023-12-28T11:11:49;9.02;;;3.45;;
33010;SDS011;19370;48.562;9.196;2023-12-28T11:14:16;8.60;;;3.37;;
33010;SDS011;19370;48.562;9.196;2023-12-28T11:16:42;7.47;;;3.50;;
33010;SDS011;19370;48.562;9.196;2023-12-28T11:19:09;7.90;;;3.40;;
33010;SDS011;19370;48.562;9.196;2023-12-28T11:21:36;8.23;;;2.85;;
33010;SDS011;19370;48.562;9.196;2023-12-28T11:24:14;8.27;;;3.00;;
33010;SDS011;19370;48.562;9.196;2023-12-28T11:29:23;7.95;;;3.25;;
33010;SDS011;19370;48.562;9.196;2023-12-28T11:31:53;7.97;;;3.03;;
33010;SDS011;19370;48.562;9.196;2023-12-28T11:34:26;7.85;;;2.90;;
33010;SDS011;19370;48.562;9.196;2023-12-28T11:52:05;7.60;;;2.72;;
33010;SDS011;19370;48.562;9.196;2023-12-28T11:54:31;6.63;;;2.70;;
33010;SDS011;19370;48.562;9.196;2023-12-28T11:56:59;7.47;;;2.70;;
33010;SDS011;19370;48.562;9.196;2023-12-28T11:59:25;6.30;;;2.42;;
33010;SDS011;19370;48.562;9.196;2023-12-28T12:01:51;7.40;;;2.60;;
33010;SDS011;19370;48.562;9.196;2023-12-28T12:04:20;6.60;;;2.60;;
33010;SDS011;19370;48.562;9.196;2023-12-28T12:06:47;6.07;;;2.47;;
33010;SDS011;19370;48.562;9.196;2023-12-28T12:09:14;7.13;;;2.63;;
33010;SDS011;19370;48.562;9.196;2023-12-28T12:11:41;5.83;;;1.93;;
33010;SDS011;19370;48.562;9.196;2023-12-28T12:14:10;6.15;;;2.30;;
33010;SDS011;19370;48.562;9.196;2023-12-28T12:16:36;6.82;;;2.10;;
33010;SDS011;19370;48.562;9.196;2023-12-28T12:19:05;6.47;;;2.20;;
33010;SDS011;19370;48.562;9.196;2023-12-28T12:21:34;7.28;;;2.05;;
33010;SDS011;19370;48.562;9.196;2023-12-28T12:24:00;6.33;;;2.20;;
33010;SDS011;19370;48.562;9.196;2023-12-28T12:26:29;5.75;;;1.98;;
33010;SDS011;19370;48.562;9.196;2023-12-28T12:28:56;6.20;;;2.03;;
33010;SDS011;19370;48.562;9.196;2023-12-28T12:31:23;6.55;;;1.90;;
33010;SDS011;19370;48.562;9.196;2023-12-28T12:33:50;6.23;;;2.20;;
33010;SDS011;19370;48.562;9.196;2023-12-28T12:36:17;6.90;;;2.45;;
33010;SDS011;19370;48.562;9.196;2023-12-28T12:38:44;7.50;;;2.88;;
33010;SDS011;19370;48.562;9.196;2023-12-28T12:41:12;6.20;;;2.58;;
33010;SDS011;19370;48.562;9.196;2023-12-28T12:43:38;6.60;;;1.90;;
33010;SDS011;19370;48.562;9.196;2023-12-28T12:46:05;6.60;;;2.00;;
33010;SDS011;19370;48.562;9.196;2023-12-28T12:48:32;5.50;;;2.08;;
33010;SDS011;19370;48.562;9.196;2023-12-28T12:51:01;7.32;;;1.92;;
33010;SDS011;19370;48.562;9.196;2023-12-28T12:53:32;5.40;;;1.93;;
33010;SDS011;19370;48.562;9.196;2023-12-28T12:56:05;6.30;;;1.90;;
33010;SDS011;19370;48.562;9.196;2023-12-28T12:58:31;5.28;;;1.70;;
33010;SDS011;19370;48.562;9.196;2023-12-28T13:00:57;6.30;;;1.90;;
33010;SDS011;19370;48.562;9.196;2023-12-28T13:03:27;6.20;;;2.00;;
33010;SDS011;19370;48.562;9.196;2023-12-28T13:05:55;6.83;;;2.10;;
33010;SDS011;19370;48.562;9.196;2023-12-28T13:08:22;6.05;;;2.20;;
33010;SDS011;19370;48.562;9.196;2023-12-28T13:10:48;8.00;;;2.10;;
33010;SDS011;19370;48.562;9.196;2023-12-28T13:13:15;6.18;;;2.10;;
33010;SDS011;19370;48.562;9.196;2023-12-28T13:15:40;5.88;;;1.90;;
33010;SDS011;19370;48.562;9.196;2023-12-28T13:18:06;6.87;;;1.80;;
33010;SDS011;19370;48.562;9.196;2023-12-28T13:20:32;6.07;;;2.00;;
33010;SDS011;19370;48.562;9.196;2023-12-28T13:22:57;5.70;;;1.70;;
33010;SDS011;19370;48.562;9.196;2023-12-28T13:25:25;6.57;;;2.10;;
33010;SDS011;19370;48.562;9.196;2023-12-28T13:27:51;6.70;;;2.03;;
33010;SDS011;19370;48.562;9.196;2023-12-28T13:30:18;6.63;;;2.37;;
33010;SDS011;19370;48.562;9.196;2023-12-28T13:32:47;7.72;;;2.40;;
33010;SDS011;19370;48.562;9.196;2023-12-28T13:35:23;6.80;;;2.20;;
33010;SDS011;19370;48.562;9.196;2023-12-28T13:37:54;7.25;;;2.25;;
33010;SDS011;19370;48.562;9.196;2023-12-28T13:40:22;6.43;;;2.40;;
33010;SDS011;19370;48.562;9.196;2023-12-28T13:42:47;6.80;;;2.00;;
33010;SDS011;19370;48.562;9.196;2023-12-28T13:45:14;6.78;;;2.30;;
33010;SDS011;19370;48.562;9.196;2023-12-28T13:47:39;6.55;;;2.60;;
33010;SDS011;19370;48.562;9.196;2023-12-28T13:50:05;8.43;;;2.80;;
33010;SDS011;19370;48.562;9.196;2023-12-28T13:52:31;8.93;;;2.90;;
33010;SDS011;19370;48.562;9.196;2023-12-28T13:54:57;6.93;;;2.77;;
33010;SDS011;19370;48.562;9.196;2023-12-28T13:57:22;7.27;;;2.80;;
33010;SDS011;19370;48.562;9.196;2023-12-28T13:59:49;8.20;;;3.10;;
33010;SDS011;19370;48.562;9.196;2023-12-28T14:02:19;17.13;;;7.28;;
33010;SDS011;19370;48.562;9.196;2023-12-28T14:04:46;27.07;;;14.10;;
33010;SDS011;19370;48.562;9.196;2023-12-28T14:07:14;16.73;;;8.52;;
33010;SDS011;19370;48.562;9.196;2023-12-28T14:09:40;14.07;;;8.43;;
33010;SDS011;19370;48.562;9.196;2023-12-28T14:12:06;13.13;;;7.07;;
33010;SDS011;19370;48.562;9.196;2023-12-28T14:14:33;13.95;;;8.30;;
33010;SDS011;19370;48.562;9.196;2023-12-28T14:16:59;9.65;;;4.43;;
33010;SDS011;19370;48.562;9.196;2023-12-28T14:19:25;8.57;;;3.80;;
33010;SDS011;19370;48.562;9.196;2023-12-28T14:24:23;7.78;;;3.63;;
33010;SDS011;19370;48.562;9.196;2023-12-28T14:26:50;9.23;;;3.67;;
33010;SDS011;19370;48.562;9.196;2023-12-28T14:29:20;8.20;;;3.70;;
33010;SDS011;19370;48.562;9.196;2023-12-28T14:31:50;7.65;;;3.45;;
33010;SDS011;19370;48.562;9.196;2023-12-28T14:36:47;8.55;;;3.60;;
33010;SDS011;19370;48.562;9.196;2023-12-28T14:39:15;7.70;;;3.60;;
33010;SDS011;19370;48.562;9.196;2023-12-28T14:44:23;10.30;;;3.78;;
33010;SDS011;19370;48.562;9.196;2023-12-28T14:46:51;11.95;;;4.82;;
33010;SDS011;19370;48.562;9.196;2023-12-28T14:49:19;19.75;;;7.80;;
33010;SDS011;19370;48.562;9.196;2023-12-28T14:51:44;16.77;;;6.90;;
33010;SDS011;19370;48.562;9.196;2023-12-28T14:54:12;14.98;;;6.32;;
33010;SDS011;19370;48.562;9.196;2023-12-28T14:56:39;12.07;;;5.30;;
33010;SDS011;19370;48.562;9.196;2023-12-28T14:59:04;9.80;;;4.73;;
33010;SDS011;19370;48.562;9.196;2023-12-28T15:01:31;7.95;;;3.63;;
33010;SDS011;19370;48.562;9.196;2023-12-28T15:04:03;7.72;;;2.88;;
33010;SDS011;19370;48.562;9.196;2023-12-28T15:06:30;7.20;;;3.33;;
33010;SDS011;19370;48.562;9.196;2023-12-28T15:08:57;10.15;;;5.30;;
33010;SDS011;19370;48.562;9.196;2023-12-28T15:11:24;7.82;;;3.50;;
33010;SDS011;19370;48.562;9.196;2023-12-28T15:13:50;7.20;;;3.00;;
33010;SDS011;19370;48.562;9.196;2023-12-28T15:16:16;8.63;;;3.37;;
33010;SDS011;19370;48.562;9.196;2023-12-28T15:18:44;10.20;;;5.55;;
33010;SDS011;19370;48.562;9.196;2023-12-28T15:21:10;9.07;;;3.90;;
33010;SDS011;19370;48.562;9.196;2023-12-28T15:23:36;7.38;;;3.45;;
33010;SDS011;19370;48.562;9.196;2023-12-28T15:26:07;9.30;;;3.40;;
33010;SDS011;19370;48.562;9.196;2023-12-28T15:28:32;7.88;;;2.92;;
33010;SDS011;19370;48.562;9.196;2023-12-28T15:30:58;7.15;;;2.85;;
33010;SDS011;19370;48.562;9.196;2023-12-28T15:33:24;7.43;;;2.83;;
33010;SDS011;19370;48.562;9.196;2023-12-28T15:35:52;9.10;;;3.10;;
33010;SDS011;19370;48.562;9.196;2023-12-28T15:38:21;8.63;;;3.43;;
33010;SDS011;19370;48.562;9.196;2023-12-28T15:40:53;9.23;;;3.38;;
33010;SDS011;19370;48.562;9.196;2023-12-28T15:43:19;9.82;;;3.55;;
33010;SDS011;19370;48.562;9.196;2023-12-28T15:45:49;8.35;;;3.75;;
33010;SDS011;19370;48.562;9.196;2023-12-28T15:48:16;9.07;;;4.03;;
33010;SDS011;19370;48.562;9.196;2023-12-28T15:50:44;8.77;;;3.40;;
33010;SDS011;19370;48.562;9.196;2023-12-28T15:53:10;8.80;;;3.70;;
33010;SDS011;19370;48.562;9.196;2023-12-28T15:55:46;9.70;;;3.60;;
33010;SDS011;19370;48.562;9.196;2023-12-28T15:58:17;8.00;;;3.55;;
33010;SDS011;19370;48.562;9.196;2023-12-28T16:00:43;10.27;;;3.40;;
33010;SDS011;19370;48.562;9.196;2023-12-28T16:03:11;9.05;;;3.60;;
33010;SDS011;19370;48.562;9.196;2023-12-28T16:05:38;8.87;;;3.27;;
33010;SDS011;19370;48.562;9.196;2023-12-28T16:08:03;7.57;;;2.80;;
33010;SDS011;19370;48.562;9.196;2023-12-28T16:10:31;7.13;;;2.90;;
33010;SDS011;19370;48.562;9.196;2023-12-28T16:13:00;8.50;;;2.90;;
33010;SDS011;19370;48.562;9.196;2023-12-28T16:15:25;7.43;;;3.17;;
33010;SDS011;19370;48.562;9.196;2023-12-28T16:17:52;8.30;;;3.20;;
33010;SDS011;19370;48.562;9.196;2023-12-28T16:20:22;7.60;;;2.85;;
33010;SDS011;19370;48.562;9.196;2023-12-28T16:22:49;6.75;;;2.65;;
33010;SDS011;19370;48.562;9.196;2023-12-28T16:25:16;7.65;;;2.92;;
33010;SDS011;19370;48.562;9.196;2023-12-28T16:27:43;8.80;;;2.83;;
33010;SDS011;19370;48.562;9.196;2023-12-28T16:33:53;6.82;;;2.80;;
33010;SDS011;19370;48.562;9.196;2023-12-28T16:44:01;6.10;;;2.10;;
33010;SDS011;19370;48.562;9.196;2023-12-28T16:49:40;5.80;;;1.90;;
33010;SDS011;19370;48.562;9.196;2023-12-28T16:52:06;6.75;;;2.00;;
33010;SDS011;19370;48.562;9.196;2023-12-28T16:54:46;7.30;;;2.30;;
33010;SDS011;19370;48.562;9.196;2023-12-28T16:57:12;7.97;;;2.60;;
33010;SDS011;19370;48.562;9.196;2023-12-28T17:06:22;7.65;;;2.22;;
33010;SDS011;19370;48.562;9.196;2023-12-28T17:08:54;7.47;;;2.85;;
33010;SDS011;19370;48.562;9.196;2023-12-28T17:11:25;9.68;;;3.15;;
33010;SDS011;19370;48.562;9.196;2023-12-28T17:13:51;7.70;;;3.25;;
33010;SDS011;19370;48.562;9.196;2023-12-28T17:18:52;7.70;;;3.30;;
33010;SDS011;19370;48.562;9.196;2023-12-28T17:21:19;7.97;;;3.58;;
33010;SDS011;19370;48.562;9.196;2023-12-28T17:41:38;7.28;;;3.17;;
33010;SDS011;19370;48.562;9.196;2023-12-28T17:44:24;8.05;;;3.47;;
33010;SDS011;19370;48.562;9.196;2023-12-28T17:50:36;9.25;;;3.55;;
33010;SDS011;19370;48.562;9.196;2023-12-28T17:53:12;9.93;;;4.93;;
33010;SDS011;19370;48.562;9.196;2023-12-28T18:03:43;9.00;;;3.53;;
33010;SDS011;19370;48.562;9.196;2023-12-28T18:06:10;9.00;;;4.03;;
33010;SDS011;19370;48.562;9.196;2023-12-28T18:08:39;10.52;;;4.10;;
33010;SDS011;19370;48.562;9.196;2023-12-28T18:11:05;9.48;;;4.32;;
33010;SDS011;19370;48.562;9.196;2023-12-28T18:16:00;9.15;;;4.07;;
33010;SDS011;19370;48.562;9.196;2023-12-28T18:18:26;11.30;;;5.67;;
33010;SDS011;19370;48.562;9.196;2023-12-28T18:20:52;10.20;;;5.77;;
33010;SDS011;19370;48.562;9.196;2023-12-28T18:23:18;15.65;;;8.88;;
33010;SDS011;19370;48.562;9.196;2023-12-28T18:25:46;19.37;;;11.50;;
33010;SDS011;19370;48.562;9.196;2023-12-28T18:28:11;9.80;;;5.50;;
33010;SDS011;19370;48.562;9.196;2023-12-28T18:30:37;9.38;;;4.20;;
33010;SDS011;19370;48.562;9.196;2023-12-28T18:33:03;8.43;;;3.90;;
33010;SDS011;19370;48.562;9.196;2023-12-28T18:35:29;9.95;;;4.35;;
33010;SDS011;19370;48.562;9.196;2023-12-28T18:37:55;9.55;;;4.63;;
33010;SDS011;19370;48.562;9.196;2023-12-28T18:40:20;8.40;;;3.83;;
33010;SDS011;19370;48.562;9.196;2023-12-28T18:42:48;9.95;;;4.75;;
33010;SDS011;19370;48.562;9.196;2023-12-28T18:45:13;14.85;;;7.50;;
33010;SDS011;19370;48.562;9.196;2023-12-28T18:47:40;9.90;;;4.47;;
33010;SDS011;19370;48.562;9.196;2023-12-28T18:50:06;8.25;;;3.50;;
33010;SDS011;19370;48.562;9.196;2023-12-28T18:52:32;7.82;;;3.55;;
33010;SDS011;19370;48.562;9.196;2023-12-28T18:54:59;8.03;;;3.17;;
33010;SDS011;19370;48.562;9.196;2023-12-28T18:57:25;8.02;;;3.55;;
33010;SDS011;19370;48.562;9.196;2023-12-28T18:59:51;9.53;;;4.13;;
33010;SDS011;19370;48.562;9.196;2023-12-28T19:02:17;10.13;;;4.20;;
33010;SDS011;19370;48.562;9.196;2023-12-28T19:04:43;8.70;;;4.13;;
33010;SDS011;19370;48.562;9.196;2023-12-28T19:39:40;8.75;;;4.40;;
33010;SDS011;19370;48.562;9.196;2023-12-28T19:42:10;10.05;;;4.50;;
33010;SDS011;19370;48.562;9.196;2023-12-28T19:44:37;10.05;;;4.85;;
33010;SDS011;19370;48.562;9.196;2023-12-28T19:47:03;9.67;;;4.30;;
33010;SDS011;19370;48.562;9.196;2023-12-28T19:49:29;9.45;;;4.80;;
33010;SDS011;19370;48.562;9.196;2023-12-28T19:51:55;9.75;;;4.70;;
33010;SDS011;19370;48.562;9.196;2023-12-28T19:54:20;9.13;;;4.80;;
33010;SDS011;19370;48.562;9.196;2023-12-28T19:56:46;9.40;;;4.68;;
33010;SDS011;19370;48.562;9.196;2023-12-28T19:59:13;10.43;;;4.90;;
33010;SDS011;19370;48.562;9.196;2023-12-28T20:01:48;9.52;;;4.30;;
33010;SDS011;19370;48.562;9.196;2023-12-28T20:04:13;9.70;;;4.32;;
33010;SDS011;19370;48.562;9.196;2023-12-28T20:06:44;10.23;;;4.10;;
33010;SDS011;19370;48.562;9.196;2023-12-28T20:09:11;8.87;;;3.73;;
33010;SDS011;19370;48.562;9.196;2023-12-28T20:11:40;8.88;;;3.58;;
33010;SDS011;19370;48.562;9.196;2023-12-28T20:14:07;9.75;;;4.10;;